createdAt,value
2022-12-31T00:00:18.230Z,4
2022-12-31T00:01:18.184Z,4
2022-12-31T00:02:18.311Z,4
2022-12-31T00:03:18.222Z,3
2022-12-31T00:04:18.166Z,3
2022-12-31T00:05:18.181Z,3
2022-12-31T00:06:18.179Z,1.5
2022-12-31T00:07:18.297Z,1.5
2022-12-31T00:08:18.181Z,1.5
2022-12-31T00:09:18.277Z,2.7
2022-12-31T00:10:18.187Z,2.7
2022-12-31T00:11:18.210Z,2.7
2022-12-31T00:12:18.209Z,2.7
2022-12-31T00:13:18.206Z,4.2
2022-12-31T00:14:18.203Z,4.2
2022-12-31T00:15:18.193Z,4.2
2022-12-31T00:16:18.259Z,1
2022-12-31T00:17:18.203Z,1
2022-12-31T00:18:18.181Z,1
2022-12-31T00:19:18.263Z,2.1
2022-12-31T00:20:18.183Z,2.1
2022-12-31T00:21:18.207Z,2.1
2022-12-31T00:22:18.222Z,2.1
2022-12-31T00:23:18.213Z,1.9
2022-12-31T00:24:18.214Z,1.9
2022-12-31T00:25:18.228Z,1.9
2022-12-31T00:26:18.229Z,3.4
2022-12-31T00:27:18.220Z,3.4
2022-12-31T00:28:18.212Z,3.4
2022-12-31T00:29:18.352Z,3.4
2022-12-31T00:30:18.193Z,1
2022-12-31T00:31:18.298Z,1
2022-12-31T00:32:18.294Z,1
2022-12-31T00:33:18.216Z,1
2022-12-31T00:34:18.249Z,1
2022-12-31T00:35:18.193Z,1
2022-12-31T00:36:18.222Z,2.4
2022-12-31T00:37:18.226Z,2.4
2022-12-31T00:38:18.207Z,2.4
2022-12-31T00:39:18.232Z,2.4
2022-12-31T00:40:18.189Z,3.1
2022-12-31T00:41:18.289Z,3.1
2022-12-31T00:42:18.220Z,3.1
2022-12-31T00:43:18.205Z,4.4
2022-12-31T00:44:18.337Z,4.4
2022-12-31T00:45:18.264Z,4.4
2022-12-31T00:46:18.267Z,2.5
2022-12-31T00:47:18.219Z,2.5
2022-12-31T00:48:18.203Z,2.5
2022-12-31T00:49:18.292Z,2.5
2022-12-31T00:50:18.221Z,2.6
2022-12-31T00:51:18.223Z,2.6
2022-12-31T00:52:18.208Z,2.6
2022-12-31T00:53:18.241Z,4.2
2022-12-31T00:54:18.264Z,4.2
2022-12-31T00:55:18.292Z,4.2
2022-12-31T00:56:18.290Z,5.9
2022-12-31T00:57:18.351Z,5.9
2022-12-31T00:58:18.284Z,5.9
2022-12-31T00:59:18.299Z,5.9
2022-12-31T01:00:18.230Z,0.8
2022-12-31T01:01:18.426Z,0.8
2022-12-31T01:02:18.475Z,0.8
2022-12-31T01:03:18.236Z,3.2
2022-12-31T01:04:18.271Z,3.2
2022-12-31T01:05:18.230Z,3.2
2022-12-31T01:06:18.288Z,2.4
2022-12-31T01:07:18.219Z,2.4
2022-12-31T01:08:18.237Z,2.4
2022-12-31T01:09:18.245Z,2.4
2022-12-31T01:10:18.268Z,2.4
2022-12-31T01:11:18.211Z,2.4
2022-12-31T01:12:18.211Z,2.4
2022-12-31T01:13:18.255Z,0.8
2022-12-31T01:14:18.275Z,0.8
2022-12-31T01:15:18.351Z,0.8
2022-12-31T01:16:18.224Z,1.9
2022-12-31T01:17:18.233Z,1.9
2022-12-31T01:18:18.289Z,1.9
2022-12-31T01:19:18.288Z,1.9
2022-12-31T01:20:18.277Z,2.9
2022-12-31T01:21:18.377Z,2.9
2022-12-31T01:22:18.300Z,2.9
2022-12-31T01:23:18.329Z,1.8
2022-12-31T01:24:18.364Z,1.8
2022-12-31T01:25:18.376Z,1.8
2022-12-31T01:26:18.329Z,3.6
2022-12-31T01:27:18.324Z,3.6
2022-12-31T01:28:18.339Z,3.6
2022-12-31T01:29:18.354Z,3.6
2022-12-31T01:30:18.321Z,2.5
2022-12-31T01:31:18.451Z,2.5
2022-12-31T01:32:18.325Z,2.5
2022-12-31T01:33:18.376Z,3.4
2022-12-31T01:34:18.477Z,3.4
2022-12-31T01:35:18.494Z,3.4
2022-12-31T01:36:23.504Z,2.1
2022-12-31T01:37:18.436Z,2.1
2022-12-31T01:38:18.433Z,2.1
2022-12-31T01:39:18.438Z,2.1
2022-12-31T01:40:18.504Z,4.2
2022-12-31T01:41:18.443Z,4.2
2022-12-31T01:42:18.502Z,4.2
2022-12-31T01:43:18.437Z,3.2
2022-12-31T01:44:18.458Z,3.2
2022-12-31T01:45:18.549Z,3.2
2022-12-31T01:46:18.540Z,2.3
2022-12-31T01:47:18.448Z,2.3
2022-12-31T01:48:18.488Z,2.3
2022-12-31T01:49:18.509Z,2.3
2022-12-31T01:50:18.500Z,2.2
2022-12-31T01:51:18.506Z,2.2
2022-12-31T01:52:18.503Z,2.2
2022-12-31T01:53:18.614Z,3
2022-12-31T01:54:18.572Z,3
2022-12-31T01:55:18.575Z,3
2022-12-31T01:56:18.576Z,2.4
2022-12-31T01:57:18.546Z,2.4
2022-12-31T01:58:18.683Z,2.4
2022-12-31T01:59:18.566Z,2.4
2022-12-31T02:00:18.606Z,1
2022-12-31T02:01:18.684Z,1
2022-12-31T02:02:18.695Z,1
2022-12-31T02:03:18.609Z,2.5
2022-12-31T02:04:18.632Z,2.5
2022-12-31T02:05:18.624Z,2.5
2022-12-31T02:06:18.615Z,2.9
2022-12-31T02:07:18.623Z,2.9
2022-12-31T02:08:18.621Z,2.9
2022-12-31T02:09:18.652Z,2.9
2022-12-31T02:10:18.648Z,1.5
2022-12-31T02:11:18.599Z,1.5
2022-12-31T02:12:18.651Z,1.5
2022-12-31T02:13:18.627Z,3.4
2022-12-31T02:14:18.665Z,3.4
2022-12-31T02:15:18.727Z,3.4
2022-12-31T02:16:18.637Z,4
2022-12-31T02:17:18.673Z,4
2022-12-31T02:18:18.643Z,4
2022-12-31T02:19:18.615Z,4
2022-12-31T02:20:18.674Z,3.4
2022-12-31T02:21:18.703Z,3.4
2022-12-31T02:22:18.607Z,3.4
2022-12-31T02:23:18.632Z,4.6
2022-12-31T02:24:18.766Z,4.6
2022-12-31T02:25:18.673Z,4.6
2022-12-31T02:26:18.639Z,4.2
2022-12-31T02:27:18.691Z,4.2
2022-12-31T02:28:18.692Z,4.2
2022-12-31T02:29:18.717Z,4.2
2022-12-31T02:30:18.655Z,5.9
2022-12-31T02:31:18.711Z,5.9
2022-12-31T02:32:18.666Z,5.9
2022-12-31T02:33:18.710Z,5
2022-12-31T02:34:18.658Z,5
2022-12-31T02:35:18.715Z,5
2022-12-31T02:36:18.673Z,4.2
2022-12-31T02:37:18.696Z,4.2
2022-12-31T02:38:18.748Z,4.2
2022-12-31T02:39:18.701Z,4.2
2022-12-31T02:40:18.727Z,4.4
2022-12-31T02:41:18.667Z,4.4
2022-12-31T02:42:18.768Z,4.4
2022-12-31T02:43:18.686Z,2.7
2022-12-31T02:44:18.738Z,2.7
2022-12-31T02:45:18.735Z,2.7
2022-12-31T02:46:18.729Z,2.4
2022-12-31T02:47:18.695Z,2.4
2022-12-31T02:48:18.717Z,2.4
2022-12-31T02:49:18.778Z,2.4
2022-12-31T02:50:18.761Z,4
2022-12-31T02:51:18.731Z,4
2022-12-31T02:52:18.724Z,4
2022-12-31T02:53:18.726Z,4.6
2022-12-31T02:54:18.734Z,4.6
2022-12-31T02:55:18.789Z,4.6
2022-12-31T02:56:18.767Z,5.3
2022-12-31T02:57:18.756Z,5.3
2022-12-31T02:58:18.753Z,5.3
2022-12-31T02:59:18.823Z,5.3
2022-12-31T03:00:18.920Z,3.1
2022-12-31T03:01:18.937Z,3.1
2022-12-31T03:02:18.892Z,3.1
2022-12-31T03:03:19.091Z,6
2022-12-31T03:04:19.021Z,6
2022-12-31T03:05:18.996Z,6
2022-12-31T03:06:18.811Z,3.4
2022-12-31T03:07:18.820Z,3.4
2022-12-31T03:08:18.896Z,3.4
2022-12-31T03:09:18.867Z,3.4
2022-12-31T03:10:18.843Z,1.4
2022-12-31T03:11:18.841Z,1.4
2022-12-31T03:12:18.854Z,1.4
2022-12-31T03:13:18.839Z,3
2022-12-31T03:14:18.872Z,3
2022-12-31T03:15:18.868Z,3
2022-12-31T03:16:18.865Z,4.8
2022-12-31T03:17:19.026Z,4.8
2022-12-31T03:18:18.950Z,4.8
2022-12-31T03:19:18.921Z,4.8
2022-12-31T03:20:18.935Z,1
2022-12-31T03:21:18.923Z,1
2022-12-31T03:22:18.951Z,1
2022-12-31T03:23:18.942Z,2.7
2022-12-31T03:24:19.005Z,2.7
2022-12-31T03:25:18.988Z,2.7
2022-12-31T03:26:18.938Z,2.5
2022-12-31T03:27:18.962Z,2.5
2022-12-31T03:28:18.982Z,2.5
2022-12-31T03:29:18.947Z,2.5
2022-12-31T03:30:18.940Z,2.7
2022-12-31T03:31:19.093Z,2.7
2022-12-31T03:32:19.058Z,2.7
2022-12-31T03:33:19.041Z,3.2
2022-12-31T03:34:19.042Z,3.2
2022-12-31T03:35:19.015Z,3.2
2022-12-31T03:36:19.034Z,2.9
2022-12-31T03:37:19.079Z,2.9
2022-12-31T03:38:19.025Z,2.9
2022-12-31T03:39:19.040Z,2.9
2022-12-31T03:40:19.034Z,5.6
2022-12-31T03:41:19.023Z,5.6
2022-12-31T03:42:19.061Z,5.6
2022-12-31T03:43:18.999Z,1.6
2022-12-31T03:44:19.041Z,1.6
2022-12-31T03:45:19.103Z,1.6
2022-12-31T03:46:19.091Z,2.9
2022-12-31T03:47:19.041Z,2.9
2022-12-31T03:48:19.048Z,2.9
2022-12-31T03:49:19.027Z,2.9
2022-12-31T03:50:19.046Z,5.3
2022-12-31T03:51:19.040Z,5.3
2022-12-31T03:52:19.016Z,5.3
2022-12-31T03:53:19.094Z,2.5
2022-12-31T03:54:19.067Z,2.5
2022-12-31T03:55:19.097Z,2.5
2022-12-31T03:56:19.117Z,3.2
2022-12-31T03:57:19.241Z,3.2
2022-12-31T03:58:19.144Z,3.2
2022-12-31T03:59:19.133Z,3.2
2022-12-31T04:00:19.098Z,3.5
2022-12-31T04:01:19.155Z,3.5
2022-12-31T04:02:22.011Z,3.5
2022-12-31T04:03:19.196Z,5
2022-12-31T04:04:19.126Z,5
2022-12-31T04:05:19.123Z,5
2022-12-31T04:06:19.124Z,4.4
2022-12-31T04:07:19.138Z,4.4
2022-12-31T04:08:19.165Z,4.4
2022-12-31T04:09:19.259Z,4.4
2022-12-31T04:10:19.173Z,3.5
2022-12-31T04:11:21.078Z,3.5
2022-12-31T04:12:19.231Z,3.5
2022-12-31T04:13:19.196Z,4.4
2022-12-31T04:14:19.233Z,4.4
2022-12-31T04:15:19.184Z,4.4
2022-12-31T04:16:19.194Z,5
2022-12-31T04:17:19.243Z,5
2022-12-31T04:18:19.222Z,5
2022-12-31T04:19:19.255Z,5
2022-12-31T04:20:19.242Z,3.4
2022-12-31T04:21:19.211Z,3.4
2022-12-31T04:22:19.340Z,3.4
2022-12-31T04:23:19.227Z,4.8
2022-12-31T04:24:19.277Z,4.8
2022-12-31T04:25:19.280Z,4.8
2022-12-31T04:26:19.343Z,7.8
2022-12-31T04:27:19.279Z,7.8
2022-12-31T04:28:19.304Z,7.8
2022-12-31T04:29:19.272Z,7.8
2022-12-31T04:30:19.300Z,4.2
2022-12-31T04:31:19.342Z,4.2
2022-12-31T04:32:19.281Z,4.2
2022-12-31T04:33:19.314Z,4.8
2022-12-31T04:34:19.287Z,4.8
2022-12-31T04:35:19.362Z,4.8
2022-12-31T04:36:19.281Z,4.8
2022-12-31T04:37:19.400Z,3
2022-12-31T04:38:19.340Z,3
2022-12-31T04:39:19.402Z,3
2022-12-31T04:40:19.367Z,3
2022-12-31T04:41:19.370Z,2.7
2022-12-31T04:42:19.368Z,2.7
2022-12-31T04:43:19.343Z,2.7
2022-12-31T04:44:19.408Z,2.7
2022-12-31T04:45:19.368Z,5.9
2022-12-31T04:46:19.464Z,5.9
2022-12-31T04:47:23.506Z,5.9
2022-12-31T04:48:19.367Z,5.9
2022-12-31T04:49:19.402Z,4.4
2022-12-31T04:50:19.406Z,4.4
2022-12-31T04:51:19.375Z,4.4
2022-12-31T04:52:19.377Z,4.4
2022-12-31T04:53:19.454Z,3.8
2022-12-31T04:54:19.476Z,3.8
2022-12-31T04:55:19.439Z,3.8
2022-12-31T04:56:19.389Z,3.8
2022-12-31T04:57:19.420Z,2.9
2022-12-31T04:58:19.413Z,2.9
2022-12-31T04:59:19.402Z,2.9
2022-12-31T05:00:19.461Z,1
2022-12-31T05:01:19.438Z,1
2022-12-31T05:02:19.624Z,1
2022-12-31T05:03:19.489Z,1
2022-12-31T05:04:19.458Z,1.8
2022-12-31T05:05:19.484Z,1.8
2022-12-31T05:06:19.451Z,1.8
2022-12-31T05:07:19.436Z,1.8
2022-12-31T05:08:19.495Z,1.8
2022-12-31T05:09:19.475Z,3
2022-12-31T05:10:19.494Z,3
2022-12-31T05:11:19.578Z,3
2022-12-31T05:12:19.487Z,0.8
2022-12-31T05:13:19.492Z,0.8
2022-12-31T05:14:19.515Z,0.8
2022-12-31T05:15:19.516Z,0.8
2022-12-31T05:16:19.513Z,3
2022-12-31T05:17:19.485Z,3
2022-12-31T05:18:19.555Z,3
2022-12-31T05:19:19.512Z,3
2022-12-31T05:20:19.539Z,3.2
2022-12-31T05:21:19.502Z,3.2
2022-12-31T05:22:19.527Z,3.2
2022-12-31T05:23:19.601Z,3.2
2022-12-31T05:24:19.620Z,3.8
2022-12-31T05:25:19.571Z,3.8
2022-12-31T05:26:19.582Z,3.8
2022-12-31T05:27:19.570Z,3.8
2022-12-31T05:28:19.602Z,4.4
2022-12-31T05:29:19.614Z,4.4
2022-12-31T05:30:19.619Z,4.4
2022-12-31T05:31:19.626Z,4.4
2022-12-31T05:32:19.607Z,2.7
2022-12-31T05:33:19.606Z,2.7
2022-12-31T05:34:19.648Z,2.7
2022-12-31T05:35:19.687Z,4.6
2022-12-31T05:36:19.679Z,4.6
2022-12-31T05:37:19.725Z,4.6
2022-12-31T05:38:19.730Z,3.4
2022-12-31T05:39:19.661Z,3.4
2022-12-31T05:40:19.735Z,3.4
2022-12-31T05:41:19.724Z,3.4
2022-12-31T05:42:19.705Z,3.8
2022-12-31T05:43:19.662Z,3.8
2022-12-31T05:44:19.689Z,3.8
2022-12-31T05:45:21.826Z,1.9
2022-12-31T05:46:19.855Z,1.9
2022-12-31T05:47:19.703Z,1.9
2022-12-31T05:48:19.677Z,1.6
2022-12-31T05:49:19.726Z,1.6
2022-12-31T05:50:19.699Z,1.6
2022-12-31T05:51:19.740Z,1.6
2022-12-31T05:52:19.717Z,2.6
2022-12-31T05:53:19.736Z,2.6
2022-12-31T05:54:19.850Z,2.6
2022-12-31T05:55:19.757Z,4.4
2022-12-31T05:56:19.807Z,4.4
2022-12-31T05:57:19.733Z,4.4
2022-12-31T05:58:19.738Z,2.4
2022-12-31T05:59:19.819Z,2.4
2022-12-31T06:00:19.735Z,2.4
2022-12-31T06:01:19.865Z,2.4
2022-12-31T06:02:19.757Z,4.4
2022-12-31T06:03:19.928Z,4.4
2022-12-31T06:04:19.782Z,4.4
2022-12-31T06:05:25.803Z,4.6
2022-12-31T06:06:19.788Z,4.6
2022-12-31T06:07:19.776Z,4.6
2022-12-31T06:08:19.807Z,0.8
2022-12-31T06:09:19.810Z,0.8
2022-12-31T06:10:19.806Z,0.8
2022-12-31T06:11:19.834Z,0.8
2022-12-31T06:12:19.815Z,2.9
2022-12-31T06:13:19.876Z,2.9
2022-12-31T06:14:19.892Z,2.9
2022-12-31T06:15:19.831Z,1
2022-12-31T06:16:19.924Z,1
2022-12-31T06:17:19.934Z,1
2022-12-31T06:18:19.869Z,3.2
2022-12-31T06:19:19.940Z,3.2
2022-12-31T06:20:19.903Z,3.2
2022-12-31T06:21:19.924Z,3.2
2022-12-31T06:22:19.927Z,1.2
2022-12-31T06:23:19.884Z,1.2
2022-12-31T06:24:19.956Z,1.2
2022-12-31T06:25:19.949Z,1.1
2022-12-31T06:26:19.933Z,1.1
2022-12-31T06:27:19.992Z,1.1
2022-12-31T06:28:20.653Z,2.1
2022-12-31T06:29:19.993Z,2.1
2022-12-31T06:30:20.016Z,2.1
2022-12-31T06:31:20.121Z,2.1
2022-12-31T06:32:19.937Z,2.6
2022-12-31T06:33:19.994Z,2.6
2022-12-31T06:34:20.027Z,2.6
2022-12-31T06:35:20.049Z,2.7
2022-12-31T06:36:19.991Z,2.7
2022-12-31T06:37:20.033Z,2.7
2022-12-31T06:38:20.020Z,3.6
2022-12-31T06:39:20.056Z,3.6
2022-12-31T06:40:20.076Z,3.6
2022-12-31T06:41:20.069Z,3.6
2022-12-31T06:42:20.024Z,4.4
2022-12-31T06:43:20.034Z,4.4
2022-12-31T06:44:20.051Z,4.4
2022-12-31T06:45:20.048Z,4.6
2022-12-31T06:46:20.067Z,4.6
2022-12-31T06:47:20.086Z,4.6
2022-12-31T06:48:20.083Z,2.4
2022-12-31T06:49:20.225Z,2.4
2022-12-31T06:50:20.214Z,2.4
2022-12-31T06:51:20.214Z,2.4
2022-12-31T06:52:20.228Z,3.2
2022-12-31T06:53:20.230Z,3.2
2022-12-31T06:54:20.275Z,3.2
2022-12-31T06:55:20.284Z,2.9
2022-12-31T06:56:20.277Z,2.9
2022-12-31T06:57:20.315Z,2.9
2022-12-31T06:58:20.319Z,4.2
2022-12-31T06:59:20.306Z,4.2
2022-12-31T07:00:20.278Z,4.2
2022-12-31T07:01:20.487Z,4.2
2022-12-31T07:02:20.339Z,2.7
2022-12-31T07:03:20.339Z,2.7
2022-12-31T07:04:20.348Z,2.7
2022-12-31T07:05:20.330Z,4.4
2022-12-31T07:06:20.327Z,4.4
2022-12-31T07:07:20.326Z,4.4
2022-12-31T07:08:20.335Z,7.4
2022-12-31T07:09:20.397Z,7.4
2022-12-31T07:10:24.101Z,7.4
2022-12-31T07:11:20.339Z,7.4
2022-12-31T07:12:20.336Z,4
2022-12-31T07:13:20.368Z,4
2022-12-31T07:14:20.352Z,4
2022-12-31T07:15:20.348Z,0.7
2022-12-31T07:16:20.462Z,0.7
2022-12-31T07:17:20.385Z,0.7
2022-12-31T07:18:20.356Z,3.2
2022-12-31T07:19:20.474Z,3.2
2022-12-31T07:20:20.381Z,3.2
2022-12-31T07:21:20.429Z,3.2
2022-12-31T07:22:20.571Z,4.6
2022-12-31T07:23:20.399Z,4.6
2022-12-31T07:24:20.519Z,4.6
2022-12-31T07:25:20.524Z,3.1
2022-12-31T07:26:20.444Z,3.1
2022-12-31T07:27:20.429Z,3.1
2022-12-31T07:28:20.447Z,3
2022-12-31T07:29:20.435Z,3
2022-12-31T07:30:20.411Z,3
2022-12-31T07:31:20.432Z,3
2022-12-31T07:32:20.434Z,3.5
2022-12-31T07:33:20.459Z,3.5
2022-12-31T07:34:20.454Z,3.5
2022-12-31T07:35:20.484Z,2.4
2022-12-31T07:36:20.438Z,2.4
2022-12-31T07:37:20.499Z,2.4
2022-12-31T07:38:20.538Z,2.4
2022-12-31T07:39:20.508Z,2.4
2022-12-31T07:40:20.449Z,2.4
2022-12-31T07:41:20.483Z,2.4
2022-12-31T07:42:20.453Z,3.8
2022-12-31T07:43:20.458Z,3.8
2022-12-31T07:44:20.563Z,3.8
2022-12-31T07:45:20.448Z,5.1
2022-12-31T07:46:20.639Z,5.1
2022-12-31T07:47:20.516Z,5.1
2022-12-31T07:48:20.497Z,2.4
2022-12-31T07:49:20.500Z,2.4
2022-12-31T07:50:20.498Z,2.4
2022-12-31T07:51:20.510Z,2.4
2022-12-31T07:52:20.501Z,4.2
2022-12-31T07:53:20.525Z,4.2
2022-12-31T07:54:20.586Z,4.2
2022-12-31T07:55:20.554Z,3.4
2022-12-31T07:56:20.514Z,3.4
2022-12-31T07:57:20.525Z,3.4
2022-12-31T07:58:20.515Z,2.4
2022-12-31T07:59:24.180Z,2.4
2022-12-31T08:00:20.591Z,2.4
2022-12-31T08:01:20.667Z,2.4
2022-12-31T08:02:20.628Z,1.6
2022-12-31T08:03:20.560Z,1.6
2022-12-31T08:04:20.563Z,1.6
2022-12-31T08:05:20.550Z,2.5
2022-12-31T08:06:20.555Z,2.5
2022-12-31T08:07:20.616Z,2.5
2022-12-31T08:08:20.623Z,2.3
2022-12-31T08:09:20.652Z,2.3
2022-12-31T08:10:20.655Z,2.3
2022-12-31T08:11:20.654Z,2.3
2022-12-31T08:12:20.594Z,2.4
2022-12-31T08:13:20.652Z,2.4
2022-12-31T08:14:20.640Z,2.4
2022-12-31T08:15:24.188Z,2.5
2022-12-31T08:16:20.692Z,2.5
2022-12-31T08:17:20.690Z,2.5
2022-12-31T08:18:20.704Z,3.6
2022-12-31T08:19:20.698Z,3.6
2022-12-31T08:20:20.702Z,3.6
2022-12-31T08:21:20.691Z,3.6
2022-12-31T08:22:20.649Z,1.8
2022-12-31T08:23:20.673Z,1.8
2022-12-31T08:24:20.852Z,1.8
2022-12-31T08:25:20.681Z,1
2022-12-31T08:26:20.799Z,1
2022-12-31T08:27:20.664Z,1
2022-12-31T08:28:20.644Z,4
2022-12-31T08:29:20.753Z,4
2022-12-31T08:30:20.723Z,4
2022-12-31T08:31:20.771Z,4
2022-12-31T08:32:20.735Z,3.4
2022-12-31T08:33:20.822Z,3.4
2022-12-31T08:34:20.746Z,3.4
2022-12-31T08:35:20.694Z,3
2022-12-31T08:36:20.757Z,3
2022-12-31T08:37:20.769Z,3
2022-12-31T08:38:20.784Z,3.1
2022-12-31T08:39:20.747Z,3.1
2022-12-31T08:40:20.708Z,3.1
2022-12-31T08:41:20.809Z,3.1
2022-12-31T08:42:20.745Z,1.5
2022-12-31T08:43:20.707Z,1.5
2022-12-31T08:44:20.819Z,1.5
2022-12-31T08:45:20.764Z,2.4
2022-12-31T08:46:20.871Z,2.4
2022-12-31T08:47:20.760Z,2.4
2022-12-31T08:48:20.857Z,2.6
2022-12-31T08:49:20.843Z,2.6
2022-12-31T08:50:20.925Z,2.6
2022-12-31T08:51:20.834Z,2.6
2022-12-31T08:52:20.810Z,2.1
2022-12-31T08:53:20.800Z,2.1
2022-12-31T08:54:20.870Z,2.1
2022-12-31T08:55:20.864Z,1.5
2022-12-31T08:56:20.802Z,1.5
2022-12-31T08:57:20.943Z,1.5
2022-12-31T08:58:21.137Z,4.4
2022-12-31T08:59:20.808Z,4.4
2022-12-31T09:00:20.841Z,4.4
2022-12-31T09:01:21.045Z,4.4
2022-12-31T09:02:21.005Z,2.2
2022-12-31T09:03:20.912Z,2.2
2022-12-31T09:04:20.832Z,2.2
2022-12-31T09:05:21.193Z,2.9
2022-12-31T09:06:20.803Z,2.9
2022-12-31T09:07:20.839Z,2.9
2022-12-31T09:08:20.829Z,4.2
2022-12-31T09:09:20.872Z,4.2
2022-12-31T09:10:20.868Z,4.2
2022-12-31T09:11:23.376Z,4.2
2022-12-31T09:12:20.958Z,1.7
2022-12-31T09:13:20.905Z,1.7
2022-12-31T09:14:20.890Z,1.7
2022-12-31T09:15:20.888Z,4.2
2022-12-31T09:16:20.906Z,4.2
2022-12-31T09:17:20.946Z,4.2
2022-12-31T09:18:21.021Z,0.8
2022-12-31T09:19:20.952Z,0.8
2022-12-31T09:20:21.060Z,0.8
2022-12-31T09:21:20.914Z,0.8
2022-12-31T09:22:20.920Z,2.5
2022-12-31T09:23:20.920Z,2.5
2022-12-31T09:24:21.020Z,2.5
2022-12-31T09:25:21.177Z,3
2022-12-31T09:26:21.011Z,3
2022-12-31T09:27:27.183Z,3
2022-12-31T09:28:21.152Z,3
2022-12-31T09:29:21.113Z,2.9
2022-12-31T09:30:21.009Z,2.9
2022-12-31T09:31:21.018Z,2.9
2022-12-31T09:32:21.051Z,1.3
2022-12-31T09:33:20.998Z,1.3
2022-12-31T09:34:21.164Z,1.3
2022-12-31T09:35:21.023Z,3.6
2022-12-31T09:36:20.982Z,3.6
2022-12-31T09:37:21.096Z,3.6
2022-12-31T09:38:20.989Z,3.6
2022-12-31T09:39:21.025Z,2.9
2022-12-31T09:40:21.037Z,2.9
2022-12-31T09:41:20.990Z,2.9
2022-12-31T09:42:20.971Z,2.9
2022-12-31T09:43:21.023Z,2.9
2022-12-31T09:44:21.087Z,2.9
2022-12-31T09:45:21.103Z,3.4
2022-12-31T09:46:21.053Z,3.4
2022-12-31T09:47:21.043Z,3.4
2022-12-31T09:48:21.027Z,3.4
2022-12-31T09:49:21.069Z,4.9
2022-12-31T09:50:21.157Z,4.9
2022-12-31T09:51:25.177Z,4.9
2022-12-31T09:52:21.318Z,2.9
2022-12-31T09:53:21.072Z,2.9
2022-12-31T09:54:21.108Z,2.9
2022-12-31T09:55:21.184Z,4.4
2022-12-31T09:56:21.072Z,4.4
2022-12-31T09:57:21.246Z,4.4
2022-12-31T09:58:21.274Z,4.6
2022-12-31T09:59:21.123Z,4.6
2022-12-31T10:00:21.083Z,4.6
2022-12-31T10:01:21.423Z,4.6
2022-12-31T10:02:21.293Z,1.1
2022-12-31T10:03:21.224Z,1.1
2022-12-31T10:04:23.186Z,1.1
2022-12-31T10:05:21.081Z,4.4
2022-12-31T10:06:21.247Z,4.4
2022-12-31T10:07:21.211Z,4.4
2022-12-31T10:08:21.124Z,5.3
2022-12-31T10:09:21.130Z,5.3
2022-12-31T10:10:21.336Z,5.3
2022-12-31T10:11:21.195Z,5.3
2022-12-31T10:12:21.337Z,3.4
2022-12-31T10:13:21.221Z,3.4
2022-12-31T10:14:21.192Z,3.4
2022-12-31T10:15:21.137Z,4.6
2022-12-31T10:16:21.311Z,4.6
2022-12-31T10:17:21.170Z,4.6
2022-12-31T10:18:21.336Z,1.5
2022-12-31T10:19:21.162Z,1.5
2022-12-31T10:20:21.151Z,1.5
2022-12-31T10:21:21.159Z,1.5
2022-12-31T10:22:21.272Z,5
2022-12-31T10:23:21.206Z,5
2022-12-31T10:24:21.251Z,5
2022-12-31T10:25:21.274Z,2.3
2022-12-31T10:26:21.233Z,2.3
2022-12-31T10:27:21.224Z,2.3
2022-12-31T10:28:21.354Z,2.5
2022-12-31T10:29:21.251Z,2.5
2022-12-31T10:30:21.266Z,2.5
2022-12-31T10:31:21.342Z,2.5
2022-12-31T10:32:23.814Z,5.8
2022-12-31T10:33:21.277Z,5.8
2022-12-31T10:34:21.371Z,5.8
2022-12-31T10:35:21.295Z,1.6
2022-12-31T10:36:21.311Z,1.6
2022-12-31T10:37:21.248Z,1.6
2022-12-31T10:38:21.250Z,1
2022-12-31T10:39:24.402Z,1
2022-12-31T10:40:21.553Z,1
2022-12-31T10:41:21.353Z,1
2022-12-31T10:42:21.460Z,2.4
2022-12-31T10:43:21.304Z,2.4
2022-12-31T10:44:21.389Z,2.4
2022-12-31T10:45:21.422Z,2.5
2022-12-31T10:46:23.198Z,2.5
2022-12-31T10:47:21.352Z,2.5
2022-12-31T10:48:21.528Z,1.8
2022-12-31T10:49:21.468Z,1.8
2022-12-31T10:50:21.394Z,1.8
2022-12-31T10:51:21.434Z,1.8
2022-12-31T10:52:21.374Z,0.8
2022-12-31T10:53:21.379Z,0.8
2022-12-31T10:54:21.552Z,0.8
2022-12-31T10:55:21.404Z,2.4
2022-12-31T10:56:21.478Z,2.4
2022-12-31T10:57:21.565Z,2.4
2022-12-31T10:58:21.504Z,1.4
2022-12-31T10:59:21.418Z,1.4
2022-12-31T11:00:21.397Z,1.4
2022-12-31T11:01:21.500Z,1.4
2022-12-31T11:02:21.763Z,2.7
2022-12-31T11:03:27.180Z,2.7
2022-12-31T11:04:21.792Z,2.7
2022-12-31T11:05:21.572Z,7.6
2022-12-31T11:06:21.536Z,7.6
2022-12-31T11:07:21.469Z,7.6
2022-12-31T11:08:21.558Z,2.6
2022-12-31T11:09:21.522Z,2.6
2022-12-31T11:10:21.560Z,2.6
2022-12-31T11:11:21.493Z,2.6
2022-12-31T11:12:21.545Z,3.2
2022-12-31T11:13:21.486Z,3.2
2022-12-31T11:14:21.675Z,3.2
2022-12-31T11:15:21.504Z,2.7
2022-12-31T11:16:21.542Z,2.7
2022-12-31T11:17:21.497Z,2.7
2022-12-31T11:18:21.498Z,2.4
2022-12-31T11:19:21.481Z,2.4
2022-12-31T11:20:21.459Z,2.4
2022-12-31T11:21:26.338Z,2.4
2022-12-31T11:22:21.476Z,2.4
2022-12-31T11:23:21.499Z,2.4
2022-12-31T11:24:21.544Z,2.4
2022-12-31T11:25:21.499Z,2.5
2022-12-31T11:26:21.508Z,2.5
2022-12-31T11:27:21.511Z,2.5
2022-12-31T11:28:21.493Z,1.9
2022-12-31T11:29:21.514Z,1.9
2022-12-31T11:30:21.558Z,1.9
2022-12-31T11:31:21.527Z,1.9
2022-12-31T11:32:21.550Z,4.8
2022-12-31T11:33:21.510Z,4.8
2022-12-31T11:34:21.604Z,4.8
2022-12-31T11:35:21.495Z,2.4
2022-12-31T11:36:21.501Z,2.4
2022-12-31T11:37:21.524Z,2.4
2022-12-31T11:38:21.463Z,1.1
2022-12-31T11:39:24.677Z,1.1
2022-12-31T11:40:21.695Z,1.1
2022-12-31T11:41:21.476Z,1.1
2022-12-31T11:42:21.461Z,3.1
2022-12-31T11:43:21.571Z,3.1
2022-12-31T11:44:21.506Z,3.1
2022-12-31T11:45:21.536Z,2.3
2022-12-31T11:46:21.496Z,2.3
2022-12-31T11:47:21.537Z,2.3
2022-12-31T11:48:30.420Z,2.3
2022-12-31T11:49:21.522Z,4.2
2022-12-31T11:50:21.508Z,4.2
2022-12-31T11:51:21.488Z,4.2
2022-12-31T11:52:21.956Z,2.5
2022-12-31T11:53:21.581Z,2.5
2022-12-31T11:54:21.483Z,2.5
2022-12-31T11:55:21.494Z,5.4
2022-12-31T11:56:21.481Z,5.4
2022-12-31T11:57:21.512Z,5.4
2022-12-31T11:58:21.622Z,5.4
2022-12-31T11:59:21.612Z,2.4
2022-12-31T12:00:21.541Z,2.4
2022-12-31T12:01:21.532Z,2.4
2022-12-31T12:02:21.608Z,2.1
2022-12-31T12:03:21.541Z,2.1
2022-12-31T12:04:21.521Z,2.1
2022-12-31T12:05:21.538Z,4.2
2022-12-31T12:06:21.532Z,4.2
2022-12-31T12:07:21.554Z,4.2
2022-12-31T12:08:21.563Z,4.2
2022-12-31T12:09:21.548Z,6.7
2022-12-31T12:10:21.522Z,6.7
2022-12-31T12:11:21.549Z,6.7
2022-12-31T12:12:21.524Z,1.5
2022-12-31T12:13:21.525Z,1.5
2022-12-31T12:14:21.530Z,1.5
2022-12-31T12:15:21.541Z,4.8
2022-12-31T12:16:21.664Z,4.8
2022-12-31T12:17:21.550Z,4.8
2022-12-31T12:18:21.549Z,4.8
2022-12-31T12:19:21.559Z,2.4
2022-12-31T12:20:21.550Z,2.4
2022-12-31T12:21:21.540Z,2.4
2022-12-31T12:22:21.529Z,3.6
2022-12-31T12:23:21.519Z,3.6
2022-12-31T12:24:21.540Z,3.6
2022-12-31T12:25:21.562Z,4.4
2022-12-31T12:26:21.531Z,4.4
2022-12-31T12:27:21.544Z,4.4
2022-12-31T12:28:21.551Z,4.4
2022-12-31T12:29:21.574Z,2.6
2022-12-31T12:30:21.539Z,2.6
2022-12-31T12:31:21.652Z,2.6
2022-12-31T12:32:21.529Z,4.7
2022-12-31T12:33:21.536Z,4.7
2022-12-31T12:34:21.643Z,4.7
2022-12-31T12:35:21.577Z,4.4
2022-12-31T12:36:21.543Z,4.4
2022-12-31T12:37:21.609Z,4.4
2022-12-31T12:38:21.555Z,4.4
2022-12-31T12:39:21.553Z,7
2022-12-31T12:40:21.563Z,7
2022-12-31T12:41:21.667Z,7
2022-12-31T12:42:21.555Z,4.4
2022-12-31T12:43:21.598Z,4.4
2022-12-31T12:44:21.581Z,4.4
2022-12-31T12:45:21.571Z,3
2022-12-31T12:46:21.588Z,3
2022-12-31T12:47:21.570Z,3
2022-12-31T12:48:21.597Z,3
2022-12-31T12:49:21.574Z,1.9
2022-12-31T12:50:21.564Z,1.9
2022-12-31T12:51:21.564Z,1.9
2022-12-31T12:52:21.561Z,4.2
2022-12-31T12:53:21.586Z,4.2
2022-12-31T12:54:21.573Z,4.2
2022-12-31T12:55:21.631Z,3
2022-12-31T12:56:21.579Z,3
2022-12-31T12:57:21.617Z,3
2022-12-31T12:58:21.627Z,3
2022-12-31T12:59:21.640Z,2.6
2022-12-31T13:00:21.846Z,2.6
2022-12-31T13:01:21.660Z,2.6
2022-12-31T13:02:21.702Z,3.4
2022-12-31T13:03:21.558Z,3.4
2022-12-31T13:04:33.822Z,3.4
2022-12-31T13:05:26.104Z,6.1
2022-12-31T13:06:21.590Z,6.1
2022-12-31T13:07:21.607Z,6.1
2022-12-31T13:08:21.628Z,6.1
2022-12-31T13:09:21.603Z,4.6
2022-12-31T13:10:21.629Z,4.6
2022-12-31T13:11:21.609Z,4.6
2022-12-31T13:12:21.634Z,4
2022-12-31T13:13:24.531Z,4
2022-12-31T13:14:21.597Z,4
2022-12-31T13:15:21.603Z,2.4
2022-12-31T13:16:21.632Z,2.4
2022-12-31T13:17:21.614Z,2.4
2022-12-31T13:18:21.662Z,2.4
2022-12-31T13:19:21.609Z,4.8
2022-12-31T13:20:21.581Z,4.8
2022-12-31T13:21:21.577Z,4.8
2022-12-31T13:22:21.624Z,4.6
2022-12-31T13:23:21.627Z,4.6
2022-12-31T13:24:21.665Z,4.6
2022-12-31T13:25:21.670Z,2.4
2022-12-31T13:26:21.621Z,2.4
2022-12-31T13:27:21.631Z,2.4
2022-12-31T13:28:21.623Z,2.4
2022-12-31T13:29:21.683Z,3.2
2022-12-31T13:30:21.610Z,3.2
2022-12-31T13:31:21.757Z,3.2
2022-12-31T13:32:21.629Z,5.1
2022-12-31T13:33:21.626Z,5.1
2022-12-31T13:34:21.740Z,5.1
2022-12-31T13:35:21.626Z,1.9
2022-12-31T13:36:21.629Z,1.9
2022-12-31T13:37:21.606Z,1.9
2022-12-31T13:38:21.629Z,1.9
2022-12-31T13:39:21.748Z,3.1
2022-12-31T13:40:21.641Z,3.1
2022-12-31T13:41:21.648Z,3.1
2022-12-31T13:42:21.640Z,1.5
2022-12-31T13:43:21.637Z,1.5
2022-12-31T13:44:21.651Z,1.5
2022-12-31T13:45:21.713Z,2.4
2022-12-31T13:46:21.577Z,2.4
2022-12-31T13:47:21.641Z,2.4
2022-12-31T13:48:21.624Z,2.4
2022-12-31T13:49:21.644Z,2.9
2022-12-31T13:50:21.636Z,2.9
2022-12-31T13:51:21.642Z,2.9
2022-12-31T13:52:21.646Z,3.5
2022-12-31T13:53:21.710Z,3.5